22 Sep 2018 19:03 UTC 2018265+19:03 UTC

Overview Datums Bench Marks Data Query Site Visit Daily QC Messages Attributes

043: Nueces Delta 3

27° 53' 1" N   97° 31' 59" W
NUDE3
The Coastal Bend Bays & Estuaries Program Coastal Bend Bays and Estuaries Program

Station Information

Nueces Delta 3
Nueces Delta 3
more pictures
 
Station Name:Nueces Delta 3
DNR ID:043
Location:27° 53' 1" N, 97° 31' 59" W

Water Level Forecasts

Latest Observations

Series Metric English Marine Observed at
Water Temperature 30.2 °C 86.4 °F 86.4 °F Sep 22 13:54 CDT
00h07m ago
Salinity 3.300 psu 3.300 psu 3.300 psu Sep 22 13:54 CDT
00h07m ago

Maps

Nueces Delta 3
All Stations in Area
Entire Network
 

Recent Observations

Date/Time Water
Temp (°F)
Sal (psu)
Sep 22 13:00 CDT 85.6 3.300
Sep 22 12:00 CDT 84.6 3.200
Sep 22 11:00 CDT 83.8 3.300
Sep 22 10:00 CDT 83.7 3.200
Sep 22 09:00 CDT 83.5 3.300
Sep 22 08:00 CDT 83.7 3.400
Sep 22 07:00 CDT 83.7 3.400
Sep 22 06:00 CDT 83.8 3.400
Sep 22 05:00 CDT 84.2 3.500
Sep 22 04:00 CDT 84.4 3.500
Sep 22 03:00 CDT 84.7 3.400
Sep 22 02:00 CDT 85.1 3.300
Sep 22 01:00 CDT 85.5 3.200
Sep 22 00:00 CDT 86.0 3.200
Sep 21 23:00 CDT 86.5 3.100
Sep 21 22:00 CDT 87.1 3.100
Sep 21 21:00 CDT 87.8 3.100
Sep 21 20:00 CDT 88.2 3.100
Sep 21 19:00 CDT 88.0 3.000
Sep 21 18:00 CDT 88.0 3.100
Sep 21 17:00 CDT 88.2 3.200
Sep 21 16:00 CDT 87.6 3.100
Sep 21 15:00 CDT 87.1 3.100
Sep 21 14:00 CDT 86.4 3.200

Historical Data Availability